Pagrindinis puslapis
METAR-TAF:

METAR-TAF

Oro uostai :

Nadžafas, Irakas

platuma: 31-59-23N, ilguma: 44-24-15E, Aukštis: 31 m

Dabartinis oras

Ataskaita buvo paskelbta 1 valandą ir 21 minutes, ne 08:00 UTC
Vėjas 17 kt iš Šiaurės Vakarų
Temperatūra 14°C
Drėgmė 58%
Slėgis 1013 hPa
Matomumas 10 km arba daugiau
Mažai debesys ne aukštis 4000 ft

METAR: ORNI 260800Z 32017KT 9999 FEW040 14/06 Q1013 NOSIG

Laikas: 12:21 (09:21 UTC)

Prognozė

Ataskaita buvo paskelbta 5 valandos ir 21 minutes, ne 04:00 UTC
Prognozė galioja nuo 26 metu 06 UTC su 27 metu 06 UTC
Vėjas 12 kt iš Šiaurės Vakarų
Matomumas: 6000 m

TAF: ORNI 260400Z 2606/2706 32012KT 6000 NSC

Orai ataskaitas ir orų prognozės (METAR, TAF).

turimą stotys yra geltonos ir raudonos taškus žemėlapyje.

Perkelti pele per norėdami pamatyti stoties vardą.

Tada spustelėkite, norėdami matyti oro stebėjimo ir prognozės.

Norėdami pakeisti žemėlapį: spustelėkite ant žalios mygtukų su juodo kryžiaus žemyn,; žalią mygtuką su brūkšneliu, jei norite nutolinti; arba žalių rodyklių gretimoms žemėlapius.


METAR-TAF: